sensor_id;sensor_type;location;lat;lon;timestamp;P1;durP1;ratioP1;P2;durP2;ratioP2
77868;SDS011;67231;59.144;37.934;2023-07-29T00:01:55;40.72;;;16.27;;
77868;SDS011;67231;59.144;37.934;2023-07-29T00:04:22;48.25;;;17.75;;
77868;SDS011;67231;59.144;37.934;2023-07-29T00:06:48;48.67;;;17.13;;
77868;SDS011;67231;59.144;37.934;2023-07-29T00:09:15;57.22;;;18.30;;
77868;SDS011;67231;59.144;37.934;2023-07-29T00:11:41;58.00;;;19.95;;
77868;SDS011;67231;59.144;37.934;2023-07-29T00:14:08;52.25;;;19.45;;
77868;SDS011;67231;59.144;37.934;2023-07-29T00:16:34;62.78;;;23.25;;
77868;SDS011;67231;59.144;37.934;2023-07-29T00:19:02;68.68;;;21.88;;
77868;SDS011;67231;59.144;37.934;2023-07-29T00:21:29;72.90;;;23.08;;
77868;SDS011;67231;59.144;37.934;2023-07-29T00:23:55;76.40;;;23.40;;
77868;SDS011;67231;59.144;37.934;2023-07-29T00:26:23;73.00;;;25.15;;
77868;SDS011;67231;59.144;37.934;2023-07-29T00:28:52;71.25;;;24.30;;
77868;SDS011;67231;59.144;37.934;2023-07-29T00:31:18;73.43;;;23.77;;
77868;SDS011;67231;59.144;37.934;2023-07-29T00:33:45;74.07;;;21.77;;
77868;SDS011;67231;59.144;37.934;2023-07-29T00:36:11;66.40;;;20.70;;
77868;SDS011;67231;59.144;37.934;2023-07-29T00:38:38;69.28;;;22.40;;
77868;SDS011;67231;59.144;37.934;2023-07-29T00:41:05;61.85;;;20.77;;
77868;SDS011;67231;59.144;37.934;2023-07-29T00:43:32;58.88;;;21.15;;
77868;SDS011;67231;59.144;37.934;2023-07-29T00:46:01;49.10;;;17.52;;
77868;SDS011;67231;59.144;37.934;2023-07-29T00:48:29;26.27;;;8.05;;
77868;SDS011;67231;59.144;37.934;2023-07-29T00:50:55;22.00;;;7.20;;
77868;SDS011;67231;59.144;37.934;2023-07-29T00:53:22;25.13;;;7.32;;
77868;SDS011;67231;59.144;37.934;2023-07-29T00:55:50;22.35;;;6.63;;
77868;SDS011;67231;59.144;37.934;2023-07-29T00:58:16;24.45;;;6.88;;
77868;SDS011;67231;59.144;37.934;2023-07-29T01:00:43;19.52;;;6.53;;
77868;SDS011;67231;59.144;37.934;2023-07-29T01:03:09;15.98;;;6.35;;
77868;SDS011;67231;59.144;37.934;2023-07-29T01:05:49;22.63;;;7.30;;
77868;SDS011;67231;59.144;37.934;2023-07-29T01:08:38;15.60;;;6.97;;
77868;SDS011;67231;59.144;37.934;2023-07-29T01:11:55;19.15;;;6.68;;
77868;SDS011;67231;59.144;37.934;2023-07-29T01:16:46;41.35;;;13.23;;
77868;SDS011;67231;59.144;37.934;2023-07-29T01:21:57;43.42;;;15.65;;
77868;SDS011;67231;59.144;37.934;2023-07-29T01:24:24;52.60;;;16.23;;
77868;SDS011;67231;59.144;37.934;2023-07-29T01:26:50;49.78;;;17.85;;
77868;SDS011;67231;59.144;37.934;2023-07-29T01:29:17;52.85;;;17.13;;
77868;SDS011;67231;59.144;37.934;2023-07-29T01:31:44;51.97;;;17.85;;
77868;SDS011;67231;59.144;37.934;2023-07-29T01:34:15;57.15;;;17.45;;
77868;SDS011;67231;59.144;37.934;2023-07-29T01:36:46;40.47;;;14.93;;
77868;SDS011;67231;59.144;37.934;2023-07-29T01:39:17;39.15;;;13.57;;
77868;SDS011;67231;59.144;37.934;2023-07-29T01:41:48;38.10;;;14.43;;
77868;SDS011;67231;59.144;37.934;2023-07-29T01:44:17;41.28;;;14.23;;
77868;SDS011;67231;59.144;37.934;2023-07-29T01:46:45;38.28;;;15.00;;
77868;SDS011;67231;59.144;37.934;2023-07-29T01:49:11;42.60;;;14.43;;
77868;SDS011;67231;59.144;37.934;2023-07-29T01:51:38;32.38;;;13.23;;
77868;SDS011;67231;59.144;37.934;2023-07-29T01:54:04;29.52;;;13.38;;
77868;SDS011;67231;59.144;37.934;2023-07-29T01:56:31;34.88;;;13.75;;
77868;SDS011;67231;59.144;37.934;2023-07-29T01:58:57;42.65;;;15.77;;
77868;SDS011;67231;59.144;37.934;2023-07-29T02:01:24;45.75;;;19.52;;
77868;SDS011;67231;59.144;37.934;2023-07-29T02:03:50;52.90;;;22.38;;
77868;SDS011;67231;59.144;37.934;2023-07-29T02:06:21;57.50;;;23.17;;
77868;SDS011;67231;59.144;37.934;2023-07-29T02:08:48;61.25;;;25.85;;
77868;SDS011;67231;59.144;37.934;2023-07-29T02:11:15;58.45;;;24.55;;
77868;SDS011;67231;59.144;37.934;2023-07-29T02:13:41;66.97;;;27.92;;
77868;SDS011;67231;59.144;37.934;2023-07-29T02:16:08;68.07;;;27.73;;
77868;SDS011;67231;59.144;37.934;2023-07-29T02:18:35;58.33;;;23.77;;
77868;SDS011;67231;59.144;37.934;2023-07-29T02:21:01;60.78;;;26.17;;
77868;SDS011;67231;59.144;37.934;2023-07-29T02:23:28;53.28;;;23.92;;
77868;SDS011;67231;59.144;37.934;2023-07-29T02:25:54;56.15;;;23.90;;
77868;SDS011;67231;59.144;37.934;2023-07-29T02:28:21;59.10;;;25.05;;
77868;SDS011;67231;59.144;37.934;2023-07-29T02:30:47;65.53;;;26.80;;
77868;SDS011;67231;59.144;37.934;2023-07-29T02:33:46;52.15;;;23.25;;
77868;SDS011;67231;59.144;37.934;2023-07-29T02:36:12;47.40;;;20.08;;
77868;SDS011;67231;59.144;37.934;2023-07-29T02:38:40;37.25;;;17.55;;
77868;SDS011;67231;59.144;37.934;2023-07-29T02:41:08;29.10;;;14.75;;
77868;SDS011;67231;59.144;37.934;2023-07-29T02:43:35;26.50;;;12.80;;
77868;SDS011;67231;59.144;37.934;2023-07-29T02:46:02;20.20;;;10.95;;
77868;SDS011;67231;59.144;37.934;2023-07-29T02:48:28;17.17;;;9.45;;
77868;SDS011;67231;59.144;37.934;2023-07-29T02:50:55;16.25;;;7.22;;
77868;SDS011;67231;59.144;37.934;2023-07-29T02:53:22;11.48;;;5.97;;
77868;SDS011;67231;59.144;37.934;2023-07-29T02:55:49;11.93;;;5.95;;
77868;SDS011;67231;59.144;37.934;2023-07-29T02:58:15;12.82;;;5.32;;
77868;SDS011;67231;59.144;37.934;2023-07-29T03:00:41;8.50;;;5.15;;
77868;SDS011;67231;59.144;37.934;2023-07-29T03:03:09;8.73;;;5.03;;
77868;SDS011;67231;59.144;37.934;2023-07-29T03:05:36;9.93;;;5.28;;
77868;SDS011;67231;59.144;37.934;2023-07-29T03:08:04;11.35;;;5.07;;
77868;SDS011;67231;59.144;37.934;2023-07-29T03:10:31;12.52;;;4.50;;
77868;SDS011;67231;59.144;37.934;2023-07-29T03:12:57;9.20;;;4.78;;
77868;SDS011;67231;59.144;37.934;2023-07-29T03:15:24;12.13;;;4.68;;
77868;SDS011;67231;59.144;37.934;2023-07-29T03:17:52;10.35;;;4.68;;
77868;SDS011;67231;59.144;37.934;2023-07-29T03:20:19;12.93;;;5.78;;
77868;SDS011;67231;59.144;37.934;2023-07-29T03:22:46;16.60;;;7.55;;
77868;SDS011;67231;59.144;37.934;2023-07-29T03:25:13;23.92;;;9.38;;
77868;SDS011;67231;59.144;37.934;2023-07-29T03:27:40;20.48;;;9.20;;
77868;SDS011;67231;59.144;37.934;2023-07-29T03:30:07;26.15;;;11.30;;
77868;SDS011;67231;59.144;37.934;2023-07-29T03:32:33;26.08;;;11.82;;
77868;SDS011;67231;59.144;37.934;2023-07-29T03:35:00;27.63;;;12.43;;
77868;SDS011;67231;59.144;37.934;2023-07-29T03:37:27;37.08;;;14.05;;
77868;SDS011;67231;59.144;37.934;2023-07-29T03:39:53;34.80;;;13.70;;
77868;SDS011;67231;59.144;37.934;2023-07-29T03:42:20;26.75;;;12.63;;
77868;SDS011;67231;59.144;37.934;2023-07-29T03:44:46;22.60;;;11.70;;
77868;SDS011;67231;59.144;37.934;2023-07-29T03:47:12;31.40;;;12.70;;
77868;SDS011;67231;59.144;37.934;2023-07-29T03:49:41;25.45;;;11.80;;
77868;SDS011;67231;59.144;37.934;2023-07-29T03:52:08;24.45;;;11.70;;
77868;SDS011;67231;59.144;37.934;2023-07-29T03:54:35;20.58;;;9.65;;
77868;SDS011;67231;59.144;37.934;2023-07-29T03:57:02;20.77;;;9.93;;
77868;SDS011;67231;59.144;37.934;2023-07-29T03:59:28;22.15;;;9.63;;
77868;SDS011;67231;59.144;37.934;2023-07-29T04:01:55;22.02;;;10.35;;
77868;SDS011;67231;59.144;37.934;2023-07-29T04:04:22;17.38;;;9.57;;
77868;SDS011;67231;59.144;37.934;2023-07-29T04:06:48;16.60;;;8.68;;
77868;SDS011;67231;59.144;37.934;2023-07-29T04:09:15;16.15;;;8.10;;
77868;SDS011;67231;59.144;37.934;2023-07-29T04:11:41;16.88;;;8.00;;
77868;SDS011;67231;59.144;37.934;2023-07-29T04:14:08;12.32;;;6.28;;
77868;SDS011;67231;59.144;37.934;2023-07-29T04:16:34;10.45;;;5.70;;
77868;SDS011;67231;59.144;37.934;2023-07-29T04:19:01;14.45;;;5.25;;
77868;SDS011;67231;59.144;37.934;2023-07-29T04:21:28;10.02;;;5.18;;
77868;SDS011;67231;59.144;37.934;2023-07-29T04:23:54;9.63;;;4.60;;
77868;SDS011;67231;59.144;37.934;2023-07-29T04:26:21;10.30;;;4.85;;
77868;SDS011;67231;59.144;37.934;2023-07-29T04:28:47;7.75;;;3.83;;
77868;SDS011;67231;59.144;37.934;2023-07-29T04:31:14;9.23;;;4.05;;
77868;SDS011;67231;59.144;37.934;2023-07-29T04:33:40;8.20;;;3.80;;
77868;SDS011;67231;59.144;37.934;2023-07-29T04:36:07;10.68;;;4.00;;
77868;SDS011;67231;59.144;37.934;2023-07-29T04:38:36;9.98;;;3.83;;
77868;SDS011;67231;59.144;37.934;2023-07-29T04:41:03;8.52;;;4.15;;
77868;SDS011;67231;59.144;37.934;2023-07-29T04:43:33;8.32;;;4.07;;
77868;SDS011;67231;59.144;37.934;2023-07-29T04:45:59;7.70;;;3.78;;
77868;SDS011;67231;59.144;37.934;2023-07-29T04:48:27;8.55;;;3.90;;
77868;SDS011;67231;59.144;37.934;2023-07-29T04:50:53;7.75;;;3.55;;
77868;SDS011;67231;59.144;37.934;2023-07-29T04:53:20;6.88;;;2.95;;
77868;SDS011;67231;59.144;37.934;2023-07-29T04:55:46;7.15;;;2.88;;
77868;SDS011;67231;59.144;37.934;2023-07-29T04:58:13;9.82;;;3.15;;
77868;SDS011;67231;59.144;37.934;2023-07-29T05:00:39;5.88;;;2.90;;
77868;SDS011;67231;59.144;37.934;2023-07-29T05:03:06;4.82;;;3.03;;
77868;SDS011;67231;59.144;37.934;2023-07-29T05:05:32;7.75;;;2.75;;
77868;SDS011;67231;59.144;37.934;2023-07-29T05:07:59;4.50;;;2.53;;
77868;SDS011;67231;59.144;37.934;2023-07-29T05:10:25;4.82;;;2.15;;
77868;SDS011;67231;59.144;37.934;2023-07-29T05:12:52;3.70;;;2.10;;
77868;SDS011;67231;59.144;37.934;2023-07-29T05:15:18;4.93;;;2.30;;
77868;SDS011;67231;59.144;37.934;2023-07-29T05:17:45;6.90;;;2.60;;
77868;SDS011;67231;59.144;37.934;2023-07-29T05:20:11;4.68;;;2.63;;
77868;SDS011;67231;59.144;37.934;2023-07-29T05:22:37;5.25;;;2.60;;
77868;SDS011;67231;59.144;37.934;2023-07-29T05:25:04;5.30;;;2.53;;
77868;SDS011;67231;59.144;37.934;2023-07-29T05:27:31;3.92;;;2.45;;
77868;SDS011;67231;59.144;37.934;2023-07-29T05:29:58;4.53;;;2.50;;
77868;SDS011;67231;59.144;37.934;2023-07-29T05:32:24;4.57;;;2.53;;
77868;SDS011;67231;59.144;37.934;2023-07-29T05:34:51;4.03;;;2.38;;
77868;SDS011;67231;59.144;37.934;2023-07-29T05:37:18;4.68;;;2.45;;
77868;SDS011;67231;59.144;37.934;2023-07-29T05:39:45;3.90;;;2.80;;
77868;SDS011;67231;59.144;37.934;2023-07-29T05:42:11;4.38;;;2.30;;
77868;SDS011;67231;59.144;37.934;2023-07-29T05:44:38;5.25;;;2.90;;
77868;SDS011;67231;59.144;37.934;2023-07-29T05:47:05;5.32;;;2.60;;
77868;SDS011;67231;59.144;37.934;2023-07-29T05:49:31;6.25;;;2.80;;
77868;SDS011;67231;59.144;37.934;2023-07-29T05:51:58;4.25;;;2.33;;
77868;SDS011;67231;59.144;37.934;2023-07-29T05:54:25;5.10;;;2.40;;
77868;SDS011;67231;59.144;37.934;2023-07-29T05:56:51;4.22;;;2.25;;
77868;SDS011;67231;59.144;37.934;2023-07-29T05:59:18;5.78;;;3.13;;
77868;SDS011;67231;59.144;37.934;2023-07-29T06:01:44;6.78;;;2.45;;
77868;SDS011;67231;59.144;37.934;2023-07-29T06:04:12;3.90;;;2.55;;
77868;SDS011;67231;59.144;37.934;2023-07-29T06:06:39;4.55;;;2.47;;
77868;SDS011;67231;59.144;37.934;2023-07-29T06:09:05;4.60;;;2.20;;
77868;SDS011;67231;59.144;37.934;2023-07-29T06:11:32;4.43;;;2.38;;
77868;SDS011;67231;59.144;37.934;2023-07-29T06:13:58;5.63;;;2.42;;
77868;SDS011;67231;59.144;37.934;2023-07-29T06:16:26;6.97;;;2.65;;
77868;SDS011;67231;59.144;37.934;2023-07-29T06:18:52;4.50;;;2.30;;
77868;SDS011;67231;59.144;37.934;2023-07-29T06:21:19;4.07;;;2.72;;
77868;SDS011;67231;59.144;37.934;2023-07-29T06:23:46;6.40;;;2.50;;
77868;SDS011;67231;59.144;37.934;2023-07-29T06:26:13;5.30;;;3.05;;
77868;SDS011;67231;59.144;37.934;2023-07-29T06:28:39;6.35;;;2.30;;
77868;SDS011;67231;59.144;37.934;2023-07-29T06:31:06;7.00;;;2.50;;
77868;SDS011;67231;59.144;37.934;2023-07-29T06:33:33;3.58;;;2.55;;
77868;SDS011;67231;59.144;37.934;2023-07-29T06:35:59;5.47;;;2.42;;
77868;SDS011;67231;59.144;37.934;2023-07-29T06:38:26;4.35;;;2.40;;
77868;SDS011;67231;59.144;37.934;2023-07-29T06:40:52;4.55;;;2.42;;
77868;SDS011;67231;59.144;37.934;2023-07-29T06:43:19;4.22;;;2.30;;
77868;SDS011;67231;59.144;37.934;2023-07-29T06:45:45;3.78;;;2.45;;
77868;SDS011;67231;59.144;37.934;2023-07-29T06:48:12;6.20;;;2.53;;
77868;SDS011;67231;59.144;37.934;2023-07-29T06:50:39;4.07;;;2.33;;
77868;SDS011;67231;59.144;37.934;2023-07-29T06:53:05;3.30;;;2.35;;
77868;SDS011;67231;59.144;37.934;2023-07-29T06:55:32;3.10;;;2.15;;
77868;SDS011;67231;59.144;37.934;2023-07-29T06:57:59;5.43;;;2.28;;
77868;SDS011;67231;59.144;37.934;2023-07-29T07:00:25;7.65;;;2.40;;
77868;SDS011;67231;59.144;37.934;2023-07-29T07:02:52;4.80;;;2.50;;
77868;SDS011;67231;59.144;37.934;2023-07-29T07:05:18;4.45;;;2.42;;
77868;SDS011;67231;59.144;37.934;2023-07-29T07:07:45;4.18;;;2.28;;
77868;SDS011;67231;59.144;37.934;2023-07-29T07:10:11;4.72;;;2.05;;
77868;SDS011;67231;59.144;37.934;2023-07-29T07:12:38;6.00;;;2.45;;
77868;SDS011;67231;59.144;37.934;2023-07-29T07:15:04;4.70;;;2.22;;
77868;SDS011;67231;59.144;37.934;2023-07-29T07:17:31;4.30;;;2.35;;
77868;SDS011;67231;59.144;37.934;2023-07-29T07:19:58;3.90;;;2.60;;
77868;SDS011;67231;59.144;37.934;2023-07-29T07:22:24;5.57;;;2.80;;
77868;SDS011;67231;59.144;37.934;2023-07-29T07:24:51;4.63;;;2.50;;
77868;SDS011;67231;59.144;37.934;2023-07-29T07:27:17;5.18;;;2.50;;
77868;SDS011;67231;59.144;37.934;2023-07-29T07:29:44;4.53;;;2.17;;
77868;SDS011;67231;59.144;37.934;2023-07-29T07:32:10;4.78;;;2.38;;
77868;SDS011;67231;59.144;37.934;2023-07-29T07:34:37;5.38;;;2.40;;
77868;SDS011;67231;59.144;37.934;2023-07-29T07:37:03;4.00;;;2.40;;
77868;SDS011;67231;59.144;37.934;2023-07-29T07:39:31;5.00;;;2.78;;
77868;SDS011;67231;59.144;37.934;2023-07-29T07:41:58;4.90;;;2.55;;
77868;SDS011;67231;59.144;37.934;2023-07-29T07:44:24;6.40;;;3.13;;
77868;SDS011;67231;59.144;37.934;2023-07-29T07:46:52;7.88;;;3.53;;
77868;SDS011;67231;59.144;37.934;2023-07-29T07:49:19;6.95;;;3.63;;
77868;SDS011;67231;59.144;37.934;2023-07-29T07:51:46;10.98;;;5.20;;
77868;SDS011;67231;59.144;37.934;2023-07-29T07:54:12;11.00;;;4.68;;
77868;SDS011;67231;59.144;37.934;2023-07-29T07:56:39;6.60;;;3.80;;
77868;SDS011;67231;59.144;37.934;2023-07-29T07:59:05;11.02;;;4.28;;
77868;SDS011;67231;59.144;37.934;2023-07-29T08:01:38;12.02;;;4.78;;
77868;SDS011;67231;59.144;37.934;2023-07-29T08:04:05;8.10;;;4.03;;
77868;SDS011;67231;59.144;37.934;2023-07-29T08:06:32;5.97;;;3.60;;
77868;SDS011;67231;59.144;37.934;2023-07-29T08:08:59;7.03;;;3.78;;
77868;SDS011;67231;59.144;37.934;2023-07-29T08:11:25;6.90;;;3.58;;
77868;SDS011;67231;59.144;37.934;2023-07-29T08:13:52;6.70;;;3.90;;
77868;SDS011;67231;59.144;37.934;2023-07-29T08:16:18;5.95;;;3.08;;
77868;SDS011;67231;59.144;37.934;2023-07-29T08:18:45;6.97;;;3.30;;
77868;SDS011;67231;59.144;37.934;2023-07-29T08:21:13;5.85;;;3.28;;
77868;SDS011;67231;59.144;37.934;2023-07-29T08:23:39;5.38;;;3.00;;
77868;SDS011;67231;59.144;37.934;2023-07-29T08:26:06;6.20;;;3.08;;
77868;SDS011;67231;59.144;37.934;2023-07-29T08:28:36;6.43;;;4.35;;
77868;SDS011;67231;59.144;37.934;2023-07-29T08:31:05;5.68;;;3.00;;
77868;SDS011;67231;59.144;37.934;2023-07-29T08:33:32;6.97;;;3.80;;
77868;SDS011;67231;59.144;37.934;2023-07-29T08:36:00;7.80;;;4.10;;
77868;SDS011;67231;59.144;37.934;2023-07-29T08:38:27;6.72;;;4.10;;
77868;SDS011;67231;59.144;37.934;2023-07-29T08:40:58;11.77;;;4.25;;
77868;SDS011;67231;59.144;37.934;2023-07-29T08:43:28;7.05;;;3.47;;
77868;SDS011;67231;59.144;37.934;2023-07-29T08:45:59;7.78;;;3.15;;
77868;SDS011;67231;59.144;37.934;2023-07-29T08:48:33;8.00;;;3.70;;
77868;SDS011;67231;59.144;37.934;2023-07-29T08:51:12;6.45;;;3.70;;
77868;SDS011;67231;59.144;37.934;2023-07-29T08:53:39;7.25;;;3.80;;
77868;SDS011;67231;59.144;37.934;2023-07-29T08:56:06;7.25;;;4.28;;
77868;SDS011;67231;59.144;37.934;2023-07-29T08:58:33;8.07;;;4.20;;
77868;SDS011;67231;59.144;37.934;2023-07-29T09:01:01;7.00;;;4.00;;
77868;SDS011;67231;59.144;37.934;2023-07-29T09:03:27;5.65;;;3.20;;
77868;SDS011;67231;59.144;37.934;2023-07-29T09:05:54;8.13;;;3.05;;
77868;SDS011;67231;59.144;37.934;2023-07-29T09:08:22;6.93;;;3.58;;
77868;SDS011;67231;59.144;37.934;2023-07-29T09:10:52;5.93;;;3.20;;
77868;SDS011;67231;59.144;37.934;2023-07-29T09:13:19;5.25;;;3.20;;
77868;SDS011;67231;59.144;37.934;2023-07-29T09:15:46;7.53;;;3.10;;
77868;SDS011;67231;59.144;37.934;2023-07-29T09:18:16;3.42;;;2.45;;
77868;SDS011;67231;59.144;37.934;2023-07-29T09:20:48;5.55;;;2.40;;
77868;SDS011;67231;59.144;37.934;2023-07-29T09:23:15;3.30;;;2.53;;
77868;SDS011;67231;59.144;37.934;2023-07-29T09:25:42;3.95;;;2.38;;
77868;SDS011;67231;59.144;37.934;2023-07-29T09:28:10;6.68;;;2.33;;
77868;SDS011;67231;59.144;37.934;2023-07-29T09:30:41;5.00;;;2.42;;
77868;SDS011;67231;59.144;37.934;2023-07-29T09:33:10;4.88;;;2.10;;
77868;SDS011;67231;59.144;37.934;2023-07-29T09:35:37;4.53;;;2.05;;
77868;SDS011;67231;59.144;37.934;2023-07-29T09:38:05;5.03;;;2.85;;
77868;SDS011;67231;59.144;37.934;2023-07-29T09:40:39;5.32;;;2.72;;
77868;SDS011;67231;59.144;37.934;2023-07-29T09:43:08;5.28;;;2.67;;
77868;SDS011;67231;59.144;37.934;2023-07-29T09:45:36;4.15;;;2.50;;
77868;SDS011;67231;59.144;37.934;2023-07-29T09:48:04;6.07;;;2.95;;
77868;SDS011;67231;59.144;37.934;2023-07-29T09:50:35;3.95;;;2.70;;
77868;SDS011;67231;59.144;37.934;2023-07-29T09:53:03;8.30;;;2.92;;
77868;SDS011;67231;59.144;37.934;2023-07-29T09:55:32;4.22;;;2.55;;
77868;SDS011;67231;59.144;37.934;2023-07-29T09:58:00;4.50;;;2.75;;
77868;SDS011;67231;59.144;37.934;2023-07-29T10:00:29;4.03;;;2.78;;
77868;SDS011;67231;59.144;37.934;2023-07-29T10:02:58;4.55;;;2.60;;
77868;SDS011;67231;59.144;37.934;2023-07-29T10:05:26;4.53;;;2.67;;
77868;SDS011;67231;59.144;37.934;2023-07-29T10:07:54;5.18;;;2.70;;
77868;SDS011;67231;59.144;37.934;2023-07-29T10:10:21;6.35;;;3.00;;
77868;SDS011;67231;59.144;37.934;2023-07-29T10:12:48;5.38;;;2.75;;
77868;SDS011;67231;59.144;37.934;2023-07-29T10:15:16;6.13;;;2.50;;
77868;SDS011;67231;59.144;37.934;2023-07-29T10:17:43;4.78;;;3.03;;
77868;SDS011;67231;59.144;37.934;2023-07-29T10:20:12;4.03;;;2.42;;
77868;SDS011;67231;59.144;37.934;2023-07-29T10:22:40;4.38;;;2.70;;
77868;SDS011;67231;59.144;37.934;2023-07-29T10:25:08;4.57;;;2.45;;
77868;SDS011;67231;59.144;37.934;2023-07-29T10:30:17;5.70;;;2.90;;
77868;SDS011;67231;59.144;37.934;2023-07-29T10:32:44;4.57;;;2.78;;
77868;SDS011;67231;59.144;37.934;2023-07-29T10:35:12;5.03;;;2.92;;
77868;SDS011;67231;59.144;37.934;2023-07-29T10:37:39;5.05;;;2.72;;
77868;SDS011;67231;59.144;37.934;2023-07-29T10:40:08;6.18;;;2.50;;
77868;SDS011;67231;59.144;37.934;2023-07-29T10:42:36;4.38;;;2.30;;
77868;SDS011;67231;59.144;37.934;2023-07-29T10:45:19;4.72;;;2.85;;
77868;SDS011;67231;59.144;37.934;2023-07-29T10:47:47;3.60;;;2.38;;
77868;SDS011;67231;59.144;37.934;2023-07-29T10:50:20;4.43;;;2.80;;
77868;SDS011;67231;59.144;37.934;2023-07-29T10:52:51;4.63;;;2.88;;
77868;SDS011;67231;59.144;37.934;2023-07-29T10:55:25;4.50;;;2.65;;
77868;SDS011;67231;59.144;37.934;2023-07-29T10:58:13;5.72;;;2.78;;
77868;SDS011;67231;59.144;37.934;2023-07-29T11:00:43;5.13;;;2.95;;
77868;SDS011;67231;59.144;37.934;2023-07-29T11:03:11;4.57;;;3.00;;
77868;SDS011;67231;59.144;37.934;2023-07-29T11:05:49;6.38;;;3.70;;
77868;SDS011;67231;59.144;37.934;2023-07-29T11:08:22;6.82;;;4.20;;
77868;SDS011;67231;59.144;37.934;2023-07-29T11:11:00;7.50;;;4.00;;
77868;SDS011;67231;59.144;37.934;2023-07-29T11:13:35;6.95;;;3.35;;
77868;SDS011;67231;59.144;37.934;2023-07-29T11:16:03;5.35;;;2.72;;
77868;SDS011;67231;59.144;37.934;2023-07-29T11:18:31;4.70;;;3.28;;
77868;SDS011;67231;59.144;37.934;2023-07-29T11:21:00;4.30;;;2.75;;
77868;SDS011;67231;59.144;37.934;2023-07-29T11:23:29;5.32;;;2.97;;
77868;SDS011;67231;59.144;37.934;2023-07-29T11:25:57;3.20;;;2.40;;
77868;SDS011;67231;59.144;37.934;2023-07-29T11:28:24;4.22;;;2.15;;
77868;SDS011;67231;59.144;37.934;2023-07-29T11:30:52;4.35;;;2.80;;
77868;SDS011;67231;59.144;37.934;2023-07-29T11:33:24;3.67;;;2.47;;
77868;SDS011;67231;59.144;37.934;2023-07-29T11:35:52;4.15;;;2.20;;
77868;SDS011;67231;59.144;37.934;2023-07-29T11:38:19;3.72;;;2.30;;
77868;SDS011;67231;59.144;37.934;2023-07-29T11:43:24;3.65;;;1.95;;
77868;SDS011;67231;59.144;37.934;2023-07-29T11:45:51;3.22;;;1.92;;
77868;SDS011;67231;59.144;37.934;2023-07-29T11:48:25;4.05;;;2.10;;
77868;SDS011;67231;59.144;37.934;2023-07-29T11:50:53;2.80;;;2.08;;
77868;SDS011;67231;59.144;37.934;2023-07-29T11:53:21;4.60;;;2.35;;
77868;SDS011;67231;59.144;37.934;2023-07-29T11:55:51;5.03;;;2.10;;
77868;SDS011;67231;59.144;37.934;2023-07-29T11:58:19;5.97;;;2.45;;
77868;SDS011;67231;59.144;37.934;2023-07-29T12:00:46;3.58;;;2.10;;
77868;SDS011;67231;59.144;37.934;2023-07-29T12:03:13;3.47;;;2.03;;
77868;SDS011;67231;59.144;37.934;2023-07-29T12:08:08;5.18;;;2.20;;
77868;SDS011;67231;59.144;37.934;2023-07-29T12:10:35;3.30;;;2.00;;
77868;SDS011;67231;59.144;37.934;2023-07-29T12:13:02;4.60;;;2.95;;
77868;SDS011;67231;59.144;37.934;2023-07-29T12:15:29;6.72;;;2.40;;
77868;SDS011;67231;59.144;37.934;2023-07-29T12:17:57;4.78;;;2.30;;
77868;SDS011;67231;59.144;37.934;2023-07-29T12:20:25;4.10;;;2.40;;
77868;SDS011;67231;59.144;37.934;2023-07-29T12:22:56;5.18;;;2.65;;
77868;SDS011;67231;59.144;37.934;2023-07-29T12:25:25;5.63;;;2.10;;
77868;SDS011;67231;59.144;37.934;2023-07-29T12:27:52;4.90;;;2.20;;
77868;SDS011;67231;59.144;37.934;2023-07-29T12:30:22;4.65;;;2.50;;
77868;SDS011;67231;59.144;37.934;2023-07-29T12:32:51;3.78;;;2.15;;
77868;SDS011;67231;59.144;37.934;2023-07-29T12:35:17;4.85;;;2.70;;
77868;SDS011;67231;59.144;37.934;2023-07-29T12:37:44;4.85;;;2.30;;
77868;SDS011;67231;59.144;37.934;2023-07-29T12:40:23;4.45;;;2.50;;
77868;SDS011;67231;59.144;37.934;2023-07-29T12:42:51;3.95;;;2.10;;
77868;SDS011;67231;59.144;37.934;2023-07-29T12:45:18;5.40;;;2.78;;
77868;SDS011;67231;59.144;37.934;2023-07-29T12:47:45;3.08;;;1.90;;
77868;SDS011;67231;59.144;37.934;2023-07-29T12:50:11;3.00;;;1.63;;
77868;SDS011;67231;59.144;37.934;2023-07-29T12:52:38;3.97;;;2.00;;
77868;SDS011;67231;59.144;37.934;2023-07-29T12:55:05;4.43;;;2.10;;
77868;SDS011;67231;59.144;37.934;2023-07-29T12:57:34;3.33;;;1.95;;
77868;SDS011;67231;59.144;37.934;2023-07-29T13:00:03;3.08;;;1.70;;
77868;SDS011;67231;59.144;37.934;2023-07-29T13:02:32;2.88;;;1.90;;
77868;SDS011;67231;59.144;37.934;2023-07-29T13:04:59;3.13;;;1.88;;
77868;SDS011;67231;59.144;37.934;2023-07-29T13:07:25;3.45;;;1.58;;
77868;SDS011;67231;59.144;37.934;2023-07-29T13:09:52;3.70;;;1.50;;
77868;SDS011;67231;59.144;37.934;2023-07-29T13:12:19;3.00;;;1.80;;
77868;SDS011;67231;59.144;37.934;2023-07-29T13:14:46;3.22;;;1.88;;
77868;SDS011;67231;59.144;37.934;2023-07-29T13:17:12;3.45;;;1.80;;
77868;SDS011;67231;59.144;37.934;2023-07-29T13:19:39;2.38;;;1.50;;
77868;SDS011;67231;59.144;37.934;2023-07-29T13:22:08;3.45;;;1.52;;
77868;SDS011;67231;59.144;37.934;2023-07-29T13:24:34;3.25;;;1.58;;
77868;SDS011;67231;59.144;37.934;2023-07-29T13:27:01;3.63;;;1.90;;
77868;SDS011;67231;59.144;37.934;2023-07-29T13:29:28;3.35;;;1.40;;
77868;SDS011;67231;59.144;37.934;2023-07-29T13:31:54;2.65;;;1.38;;
77868;SDS011;67231;59.144;37.934;2023-07-29T13:34:21;3.15;;;1.83;;
77868;SDS011;67231;59.144;37.934;2023-07-29T13:36:47;4.57;;;2.15;;
77868;SDS011;67231;59.144;37.934;2023-07-29T13:39:14;5.38;;;2.00;;
77868;SDS011;67231;59.144;37.934;2023-07-29T13:41:41;4.90;;;2.70;;
77868;SDS011;67231;59.144;37.934;2023-07-29T13:44:08;6.57;;;2.70;;
77868;SDS011;67231;59.144;37.934;2023-07-29T13:46:34;6.57;;;3.20;;
77868;SDS011;67231;59.144;37.934;2023-07-29T13:49:01;6.40;;;2.67;;
77868;SDS011;67231;59.144;37.934;2023-07-29T13:51:29;4.13;;;2.13;;
77868;SDS011;67231;59.144;37.934;2023-07-29T13:53:55;5.60;;;2.10;;
77868;SDS011;67231;59.144;37.934;2023-07-29T13:56:22;4.35;;;2.20;;
77868;SDS011;67231;59.144;37.934;2023-07-29T13:58:49;2.78;;;1.75;;
77868;SDS011;67231;59.144;37.934;2023-07-29T14:01:15;5.72;;;2.40;;
77868;SDS011;67231;59.144;37.934;2023-07-29T14:03:42;3.97;;;2.10;;
77868;SDS011;67231;59.144;37.934;2023-07-29T14:06:08;3.83;;;2.30;;
77868;SDS011;67231;59.144;37.934;2023-07-29T14:08:35;5.88;;;2.70;;
77868;SDS011;67231;59.144;37.934;2023-07-29T14:11:01;6.35;;;2.97;;
77868;SDS011;67231;59.144;37.934;2023-07-29T14:13:28;6.18;;;2.90;;
77868;SDS011;67231;59.144;37.934;2023-07-29T14:15:55;4.28;;;2.67;;
77868;SDS011;67231;59.144;37.934;2023-07-29T14:18:21;6.18;;;2.58;;
77868;SDS011;67231;59.144;37.934;2023-07-29T14:20:48;5.75;;;2.55;;
77868;SDS011;67231;59.144;37.934;2023-07-29T14:23:15;5.85;;;3.50;;
77868;SDS011;67231;59.144;37.934;2023-07-29T14:25:42;4.55;;;2.53;;
77868;SDS011;67231;59.144;37.934;2023-07-29T14:28:08;5.55;;;4.10;;
77868;SDS011;67231;59.144;37.934;2023-07-29T14:30:35;4.15;;;2.92;;
77868;SDS011;67231;59.144;37.934;2023-07-29T14:33:01;4.47;;;2.38;;
77868;SDS011;67231;59.144;37.934;2023-07-29T14:35:29;5.32;;;2.25;;
77868;SDS011;67231;59.144;37.934;2023-07-29T14:37:56;4.03;;;1.90;;
77868;SDS011;67231;59.144;37.934;2023-07-29T14:40:22;6.22;;;2.30;;
77868;SDS011;67231;59.144;37.934;2023-07-29T14:42:49;4.75;;;1.90;;
77868;SDS011;67231;59.144;37.934;2023-07-29T14:45:16;3.80;;;1.80;;